Latest Weather Observations for Broome Port

IDW60801

Issued at 10:35 pm WST Saturday 25 October 2014 (issued every 30 minutes, with the page automatically refreshed every 10 minutes)

About weather observations | Map of weather stations | Latest weather observations for WA | Other Formats
Station Details ID: 003102 Name: BROOME NTC AWS Lat: -18.00 Lon: 122.22 Height: 0.0 m
Data from the previous 72 hours. | See also: Recent months for locations in Western Australia
Date/Time
WST
Temp
°C
App
Temp
°C
Dew
Point
Rel
Hum
%
Delta-T
°C
Wind Press
QNH
hPa
Press
MSL
hPa
Rain
since 9 am
mm
Dir
 
Spd
km/h
Gust
km/h
Spd
kts
Gust
kts
25/10:30pm 27.0 - - - - NW 22 30 12 16 1012.1 1012.0 -
25/10:00pm 27.1 - - - - NW 24 30 13 16 1012.3 1012.2 -
25/09:30pm 27.1 - - - - NW 24 32 13 17 1012.3 1012.2 -
25/09:00pm 27.1 - - - - NW 24 30 13 16 1012.4 1012.3 -
25/08:30pm 27.1 - - - - NNW 26 32 14 17 1012.2 1012.1 -
25/08:00pm 27.1 - - - - NW 26 33 14 18 1012.1 1012.0 -
25/07:30pm 27.1 - - - - NW 28 37 15 20 1011.7 1011.6 -
25/07:00pm 27.0 - - - - NW 28 33 15 18 1011.5 1011.4 -
25/06:30pm 27.1 - - - - NNW 28 37 15 20 1011.3 1011.2 -
25/06:00pm 27.2 - - - - NW 30 37 16 20 1011.2 1011.1 -
25/05:30pm 27.4 - - - - NNW 30 37 16 20 1010.8 1010.7 -
25/05:00pm 27.6 - - - - NNW 32 37 17 20 1010.5 1010.4 -
25/04:30pm 27.5 - - - - NW 32 35 17 19 1010.6 1010.5 -
25/04:00pm 27.6 - - - - NW 32 37 17 20 1010.3 1010.2 -
25/03:30pm 27.5 - - - - NW 33 41 18 22 1010.4 1010.3 -
25/03:00pm 27.6 - - - - NW 33 39 18 21 1010.4 1010.3 -
25/02:30pm 27.7 - - - - NW 32 39 17 21 1010.8 1010.7 -
25/02:00pm 27.6 - - - - NW 30 35 16 19 1011.3 1011.2 -
25/01:30pm 27.9 - - - - NW 28 33 15 18 1011.4 1011.3 -
25/01:00pm 27.9 - - - - NNW 28 37 15 20 1011.7 1011.6 -
25/12:30pm 28.0 - - - - NNW 26 33 14 18 1012.1 1012.0 -
25/12:00pm 27.8 - - - - NNW 26 33 14 18 1012.2 1012.1 -
25/11:30am 27.6 - - - - NNW 24 32 13 17 1012.7 1012.6 -
25/11:00am 27.9 - - - - N 20 26 11 14 1013.2 1013.1 -
25/10:30am 27.8 - - - - NNW 20 28 11 15 1013.4 1013.3 -
25/10:00am 27.9 - - - - NNW 15 20 8 11 1013.8 1013.7 -
25/09:30am 27.9 - - - - NNW 13 17 7 9 1014.0 1013.9 -
25/09:00am 27.8 - - - - NNW 13 19 7 10 1013.9 1013.8 -
25/08:30am 27.6 - - - - N 15 19 8 10 1013.7 1013.6 -
25/08:00am 27.0 - - - - NNW 17 20 9 11 1013.8 1013.7 -
25/07:30am 27.1 - - - - NW 13 20 7 11 1013.8 1013.7 -
25/07:00am 27.0 - - - - NW 17 20 9 11 1013.4 1013.3 -
25/06:30am 26.9 - - - - WNW 19 22 10 12 1013.2 1013.1 -
25/06:00am 26.8 - - - - WNW 15 20 8 11 1012.6 1012.5 -
25/05:30am 26.8 - - - - W 22 28 12 15 1012.1 1012.0 -
25/05:00am 26.8 - - - - W 20 30 11 16 1011.8 1011.7 -
25/04:30am 26.8 - - - - W 20 26 11 14 1011.4 1011.3 -
25/04:00am 26.9 - - - - WNW 17 22 9 12 1011.2 1011.1 -
25/03:30am 26.9 - - - - WNW 19 22 10 12 1010.8 1010.7 -
25/03:00am 26.8 - - - - WNW 17 22 9 12 1010.8 1010.7 -
25/02:30am 27.0 - - - - WNW 22 28 12 15 1010.2 1010.1 -
25/02:00am 27.0 - - - - W 11 15 6 8 1010.9 1010.8 -
25/01:30am 26.9 - - - - W 6 9 3 5 1011.2 1011.1 -
25/01:00am 27.0 - - - - SSW 11 15 6 8 1011.4 1011.3 -
25/12:30am 27.1 - - - - SW 11 15 6 8 1012.0 1011.9 -
25/12:00am 26.7 - - - - WNW 17 20 9 11 1011.6 1011.5 -
 
Date/Time
WST
Temp
°C
App
Temp
°C
Dew
Point
Rel
Hum
%
Delta-T
°C
Wind Press
QNH
hPa
Press
MSL
hPa
Rain
since 9 am
mm
Dir
 
Spd
km/h
Gust
km/h
Spd
kts
Gust
kts
24/11:30pm 26.7 - - - - WNW 17 22 9 12 1011.6 1011.5 -
24/11:00pm 26.7 - - - - NW 19 26 10 14 1011.6 1011.5 -
24/10:30pm 26.8 - - - - NNW 22 30 12 16 1011.7 1011.6 -
24/10:00pm 26.8 - - - - NNW 26 32 14 17 1011.7 1011.6 -
24/09:30pm 26.9 - - - - NNW 30 37 16 20 1011.7 1011.6 -
24/09:00pm 26.9 - - - - NNW 30 39 16 21 1011.4 1011.3 -
24/08:30pm 26.9 - - - - NNW 30 39 16 21 1011.3 1011.2 -
24/08:00pm 26.9 - - - - NNW 30 39 16 21 1011.1 1011.0 -
24/07:30pm 27.0 - - - - NNW 32 41 17 22 1010.7 1010.6 -
24/07:00pm 27.1 - - - - NNW 28 35 15 19 1010.6 1010.5 -
24/06:30pm 27.3 - - - - NNW 35 41 19 22 1010.1 1010.0 -
24/06:00pm 27.4 - - - - NNW 30 37 16 20 1010.0 1009.9 -
24/05:30pm 27.6 - - - - NNW 37 41 20 22 1009.8 1009.7 -
24/05:00pm 27.8 - - - - N 35 43 19 23 1009.5 1009.4 -
24/04:30pm 27.9 - - - - N 37 43 20 23 1009.3 1009.2 -
24/04:00pm 28.0 - - - - NNW 33 41 18 22 1009.3 1009.2 -
24/03:30pm 27.9 - - - - N 37 44 20 24 1009.5 1009.4 -
24/03:00pm 28.0 - - - - N 35 43 19 23 1009.8 1009.7 -
24/02:30pm 28.0 - - - - N 35 43 19 23 1009.9 1009.8 -
24/02:00pm 28.2 - - - - NNW 32 39 17 21 1010.1 1010.0 -
24/01:30pm 28.3 - - - - NNW 30 37 16 20 1010.5 1010.4 -
24/01:00pm 28.9 - - - - NNW 28 33 15 18 1010.8 1010.7 -
24/12:30pm 29.3 - - - - NNW 24 30 13 16 1010.9 1010.8 -
24/12:00pm 29.5 - - - - NNW 22 28 12 15 1011.2 1011.1 -
24/11:30am 28.9 - - - - NNW 22 28 12 15 1011.3 1011.2 -
24/11:00am 29.1 - - - - NNW 22 28 12 15 1011.5 1011.4 -
24/10:30am 29.9 - - - - N 15 19 8 10 1011.9 1011.8 -
24/10:00am 28.6 - - - - N 19 26 10 14 1012.2 1012.1 -
24/09:30am 28.4 - - - - N 20 24 11 13 1012.1 1012.0 -
24/09:00am 28.5 - - - - NE 4 9 2 5 1012.5 1012.4 -
24/08:30am 27.9 - - - - E 7 11 4 6 1012.6 1012.5 -
24/08:00am 27.9 - - - - NNE 7 11 4 6 1012.6 1012.5 -
24/07:30am 27.2 - - - - N 7 9 4 5 1012.3 1012.2 -
24/07:00am 26.9 - - - - NNW 7 9 4 5 1012.0 1011.9 -
24/06:30am 26.8 - - - - NW 11 17 6 9 1011.4 1011.3 -
24/06:00am 26.7 - - - - NW 19 24 10 13 1010.8 1010.7 -
24/05:30am 26.6 - - - - NW 19 22 10 12 1010.5 1010.4 -
24/05:00am 26.5 - - - - NW 17 22 9 12 1010.3 1010.2 -
24/04:30am 26.5 - - - - NW 17 20 9 11 1010.1 1010.0 -
24/04:00am 26.7 - - - - NW 19 24 10 13 1009.8 1009.7 -
24/03:30am 26.6 - - - - NW 17 22 9 12 1009.7 1009.6 -
24/03:00am 26.5 - - - - NNW 15 19 8 10 1009.7 1009.6 -
24/02:30am 26.6 - - - - NW 19 24 10 13 1009.6 1009.5 -
24/02:00am 26.5 - - - - NNW 19 22 10 12 1009.9 1009.8 -
24/01:30am 26.6 - - - - NW 20 24 11 13 1010.0 1009.9 -
24/01:00am 25.9 - - - - N 9 13 5 7 1010.4 1010.3 -
24/12:30am 25.9 - - - - N 11 15 6 8 1010.7 1010.6 -
24/12:00am 26.2 - - - - NE 11 15 6 8 1011.5 1011.4 -
 
Date/Time
WST
Temp
°C
App
Temp
°C
Dew
Point
Rel
Hum
%
Delta-T
°C
Wind Press
QNH
hPa
Press
MSL
hPa
Rain
since 9 am
mm
Dir
 
Spd
km/h
Gust
km/h
Spd
kts
Gust
kts
23/11:30pm 26.4 - - - - NE 13 17 7 9 1011.6 1011.5 -
23/11:00pm 26.9 - - - - NNW 17 20 9 11 1011.4 1011.3 -
23/10:30pm 27.0 - - - - N 17 20 9 11 1012.1 1012.0 -
23/10:00pm 27.1 - - - - NNE 19 22 10 12 1012.5 1012.4 -
23/09:30pm 27.0 - - - - N 17 20 9 11 1012.3 1012.2 -
23/09:00pm 27.1 - - - - NNW 15 20 8 11 1012.1 1012.0 -
23/08:30pm 27.0 - - - - NNW 20 24 11 13 1011.5 1011.4 -
23/08:00pm 27.0 - - - - NW 19 24 10 13 1011.6 1011.5 -
23/07:30pm 27.1 - - - - NNW 26 33 14 18 1011.1 1011.0 -
23/07:00pm 27.1 - - - - NNW 30 37 16 20 1010.7 1010.6 -
23/06:30pm 27.1 - - - - NNW 33 41 18 22 1010.2 1010.1 -
23/06:00pm 27.2 - - - - NNW 35 44 19 24 1009.8 1009.7 -
23/05:30pm 27.3 - - - - NNW 37 48 20 26 1009.3 1009.2 -
23/05:00pm 27.3 - - - - NNW 39 48 21 26 1008.8 1008.7 -
23/04:30pm 27.5 - - - - NNW 44 54 24 29 1008.4 1008.3 -
23/04:00pm 27.7 - - - - NNW 41 50 22 27 1008.3 1008.2 -
23/03:30pm 27.7 - - - - NNW 41 48 22 26 1008.6 1008.5 -
23/03:00pm 27.7 - - - - NNW 41 48 22 26 1008.8 1008.7 -
23/02:30pm 27.7 - - - - NNW 43 48 23 26 1009.0 1008.9 -
23/02:00pm 28.1 - - - - NNW 39 46 21 25 1009.4 1009.3 -
23/01:30pm 27.8 - - - - NNW 37 46 20 25 1009.6 1009.5 -
23/01:00pm 28.0 - - - - NNW 35 44 19 24 1009.9 1009.8 -
23/12:30pm 28.5 - - - - NNW 32 43 17 23 1010.3 1010.2 -
23/12:00pm 28.3 - - - - NNW 33 43 18 23 1010.5 1010.4 -
23/11:30am 28.2 - - - - NNW 30 39 16 21 1010.9 1010.8 -
23/11:00am 28.3 - - - - N 24 33 13 18 1011.1 1011.0 -
23/10:30am 28.7 - - - - NNW 24 30 13 16 1010.8 1010.7 -
23/10:00am 28.9 - - - - NNW 28 33 15 18 1010.9 1010.8 -
23/09:30am 28.8 - - - - NNW 28 35 15 19 1010.8 1010.7 -
23/09:00am 28.3 - - - - N 28 35 15 19 1010.8 1010.7 -
23/08:30am 27.4 - - - - N 33 41 18 22 1010.8 1010.7 -
23/08:00am 27.1 - - - - N 33 41 18 22 1010.8 1010.7 -
23/07:30am 26.7 - - - - N 30 37 16 20 1010.8 1010.7 -
23/07:00am 26.3 - - - - NNE 19 24 10 13 1010.9 1010.8 -

Other Formats:

Comma delimited format used in spreadsheet applications
http://www.bom.gov.au/fwo/IDW60801/IDW60801.95202.axf

JavaScript Object Notation format (JSON) in row-major order
http://www.bom.gov.au/fwo/IDW60801/IDW60801.95202.json